sensor_id;sensor_type;location;lat;lon;timestamp;P1;durP1;ratioP1;P2;durP2;ratioP2
25263;SDS011;13211;51.796;5.808;2024-03-06T00:00:00;26.20;;;18.00;;
25263;SDS011;13211;51.796;5.808;2024-03-06T00:02:32;26.33;;;17.35;;
25263;SDS011;13211;51.796;5.808;2024-03-06T00:05:00;24.13;;;17.97;;
25263;SDS011;13211;51.796;5.808;2024-03-06T00:07:28;22.00;;;16.38;;
25263;SDS011;13211;51.796;5.808;2024-03-06T00:09:56;26.15;;;19.27;;
25263;SDS011;13211;51.796;5.808;2024-03-06T00:12:24;28.08;;;19.10;;
25263;SDS011;13211;51.796;5.808;2024-03-06T00:14:51;29.58;;;20.90;;
25263;SDS011;13211;51.796;5.808;2024-03-06T00:17:19;44.63;;;28.52;;
25263;SDS011;13211;51.796;5.808;2024-03-06T00:19:47;46.10;;;29.50;;
25263;SDS011;13211;51.796;5.808;2024-03-06T00:22:18;44.55;;;27.33;;
25263;SDS011;13211;51.796;5.808;2024-03-06T00:24:50;36.97;;;24.85;;
25263;SDS011;13211;51.796;5.808;2024-03-06T00:27:22;36.33;;;24.95;;
25263;SDS011;13211;51.796;5.808;2024-03-06T00:29:50;38.22;;;24.40;;
25263;SDS011;13211;51.796;5.808;2024-03-06T00:32:17;36.20;;;24.08;;
25263;SDS011;13211;51.796;5.808;2024-03-06T00:34:45;33.67;;;22.00;;
25263;SDS011;13211;51.796;5.808;2024-03-06T00:37:13;30.00;;;20.23;;
25263;SDS011;13211;51.796;5.808;2024-03-06T00:39:40;27.83;;;19.85;;
25263;SDS011;13211;51.796;5.808;2024-03-06T00:42:08;32.03;;;20.88;;
25263;SDS011;13211;51.796;5.808;2024-03-06T00:44:36;33.60;;;22.40;;
25263;SDS011;13211;51.796;5.808;2024-03-06T00:47:08;35.65;;;24.27;;
25263;SDS011;13211;51.796;5.808;2024-03-06T00:49:36;18.13;;;12.10;;
25263;SDS011;13211;51.796;5.808;2024-03-06T00:52:05;18.43;;;11.43;;
25263;SDS011;13211;51.796;5.808;2024-03-06T00:54:33;20.20;;;12.23;;
25263;SDS011;13211;51.796;5.808;2024-03-06T00:57:00;20.67;;;13.70;;
25263;SDS011;13211;51.796;5.808;2024-03-06T00:59:28;20.42;;;14.40;;
25263;SDS011;13211;51.796;5.808;2024-03-06T01:01:56;25.95;;;17.55;;
25263;SDS011;13211;51.796;5.808;2024-03-06T01:04:24;24.40;;;16.73;;
25263;SDS011;13211;51.796;5.808;2024-03-06T01:06:51;27.27;;;18.35;;
25263;SDS011;13211;51.796;5.808;2024-03-06T01:09:19;27.77;;;19.00;;
25263;SDS011;13211;51.796;5.808;2024-03-06T01:11:47;30.65;;;21.15;;
25263;SDS011;13211;51.796;5.808;2024-03-06T01:14:16;31.67;;;20.52;;
25263;SDS011;13211;51.796;5.808;2024-03-06T01:16:44;32.73;;;22.33;;
25263;SDS011;13211;51.796;5.808;2024-03-06T01:19:11;30.03;;;20.30;;
25263;SDS011;13211;51.796;5.808;2024-03-06T01:21:39;27.23;;;19.27;;
25263;SDS011;13211;51.796;5.808;2024-03-06T01:24:07;19.20;;;14.93;;
25263;SDS011;13211;51.796;5.808;2024-03-06T01:26:34;12.65;;;9.38;;
25263;SDS011;13211;51.796;5.808;2024-03-06T01:29:02;10.65;;;8.95;;
25263;SDS011;13211;51.796;5.808;2024-03-06T01:31:30;11.15;;;8.98;;
25263;SDS011;13211;51.796;5.808;2024-03-06T01:33:58;10.65;;;9.20;;
25263;SDS011;13211;51.796;5.808;2024-03-06T01:36:26;10.60;;;9.10;;
25263;SDS011;13211;51.796;5.808;2024-03-06T01:38:53;11.30;;;9.82;;
25263;SDS011;13211;51.796;5.808;2024-03-06T01:41:21;14.38;;;10.82;;
25263;SDS011;13211;51.796;5.808;2024-03-06T01:43:49;14.63;;;11.73;;
25263;SDS011;13211;51.796;5.808;2024-03-06T01:46:20;11.88;;;10.45;;
25263;SDS011;13211;51.796;5.808;2024-03-06T01:48:48;9.30;;;8.30;;
25263;SDS011;13211;51.796;5.808;2024-03-06T01:51:16;9.30;;;8.30;;
25263;SDS011;13211;51.796;5.808;2024-03-06T01:53:44;9.40;;;8.40;;
25263;SDS011;13211;51.796;5.808;2024-03-06T01:56:12;14.48;;;11.77;;
25263;SDS011;13211;51.796;5.808;2024-03-06T01:58:45;12.95;;;10.70;;
25263;SDS011;13211;51.796;5.808;2024-03-06T02:01:13;13.13;;;10.20;;
25263;SDS011;13211;51.796;5.808;2024-03-06T02:03:42;12.00;;;9.97;;
25263;SDS011;13211;51.796;5.808;2024-03-06T02:06:10;13.35;;;10.23;;
25263;SDS011;13211;51.796;5.808;2024-03-06T02:08:39;12.77;;;10.15;;
25263;SDS011;13211;51.796;5.808;2024-03-06T02:11:06;13.60;;;10.60;;
25263;SDS011;13211;51.796;5.808;2024-03-06T02:13:41;19.60;;;12.82;;
25263;SDS011;13211;51.796;5.808;2024-03-06T02:16:09;14.02;;;10.30;;
25263;SDS011;13211;51.796;5.808;2024-03-06T02:18:37;12.98;;;9.18;;
25263;SDS011;13211;51.796;5.808;2024-03-06T02:21:06;9.48;;;8.48;;
25263;SDS011;13211;51.796;5.808;2024-03-06T02:23:34;10.05;;;8.35;;
25263;SDS011;13211;51.796;5.808;2024-03-06T02:26:02;11.98;;;9.90;;
25263;SDS011;13211;51.796;5.808;2024-03-06T02:28:29;13.50;;;10.75;;
25263;SDS011;13211;51.796;5.808;2024-03-06T02:30:58;12.30;;;10.40;;
25263;SDS011;13211;51.796;5.808;2024-03-06T02:33:29;14.93;;;11.65;;
25263;SDS011;13211;51.796;5.808;2024-03-06T02:36:00;14.35;;;11.45;;
25263;SDS011;13211;51.796;5.808;2024-03-06T02:38:27;15.45;;;12.23;;
25263;SDS011;13211;51.796;5.808;2024-03-06T02:40:55;15.20;;;12.23;;
25263;SDS011;13211;51.796;5.808;2024-03-06T02:43:22;17.67;;;12.93;;
25263;SDS011;13211;51.796;5.808;2024-03-06T02:45:50;15.75;;;12.20;;
25263;SDS011;13211;51.796;5.808;2024-03-06T02:48:18;16.20;;;12.55;;
25263;SDS011;13211;51.796;5.808;2024-03-06T02:50:45;16.10;;;12.20;;
25263;SDS011;13211;51.796;5.808;2024-03-06T02:53:13;16.02;;;12.27;;
25263;SDS011;13211;51.796;5.808;2024-03-06T02:55:41;17.10;;;13.40;;
25263;SDS011;13211;51.796;5.808;2024-03-06T02:58:09;16.23;;;12.07;;
25263;SDS011;13211;51.796;5.808;2024-03-06T03:00:39;15.93;;;11.90;;
25263;SDS011;13211;51.796;5.808;2024-03-06T03:03:08;15.68;;;12.15;;
25263;SDS011;13211;51.796;5.808;2024-03-06T03:05:35;15.95;;;12.00;;
25263;SDS011;13211;51.796;5.808;2024-03-06T03:08:03;17.27;;;12.95;;
25263;SDS011;13211;51.796;5.808;2024-03-06T03:10:31;14.05;;;11.57;;
25263;SDS011;13211;51.796;5.808;2024-03-06T03:13:02;13.02;;;11.25;;
25263;SDS011;13211;51.796;5.808;2024-03-06T03:15:31;13.47;;;11.40;;
25263;SDS011;13211;51.796;5.808;2024-03-06T03:17:59;13.15;;;11.75;;
25263;SDS011;13211;51.796;5.808;2024-03-06T03:20:27;14.73;;;11.88;;
25263;SDS011;13211;51.796;5.808;2024-03-06T03:22:54;14.05;;;11.48;;
25263;SDS011;13211;51.796;5.808;2024-03-06T03:25:22;18.40;;;13.10;;
25263;SDS011;13211;51.796;5.808;2024-03-06T03:27:49;18.42;;;10.18;;
25263;SDS011;13211;51.796;5.808;2024-03-06T03:30:17;10.00;;;9.00;;
25263;SDS011;13211;51.796;5.808;2024-03-06T03:32:49;10.80;;;9.70;;
25263;SDS011;13211;51.796;5.808;2024-03-06T03:35:16;13.20;;;10.93;;
25263;SDS011;13211;51.796;5.808;2024-03-06T03:37:53;13.32;;;11.07;;
25263;SDS011;13211;51.796;5.808;2024-03-06T03:40:22;13.68;;;11.82;;
25263;SDS011;13211;51.796;5.808;2024-03-06T03:42:50;13.48;;;11.13;;
25263;SDS011;13211;51.796;5.808;2024-03-06T03:45:17;13.75;;;11.38;;
25263;SDS011;13211;51.796;5.808;2024-03-06T03:47:47;12.90;;;10.77;;
25263;SDS011;13211;51.796;5.808;2024-03-06T03:50:14;13.32;;;11.02;;
25263;SDS011;13211;51.796;5.808;2024-03-06T03:52:42;14.82;;;12.00;;
25263;SDS011;13211;51.796;5.808;2024-03-06T03:55:10;12.45;;;10.25;;
25263;SDS011;13211;51.796;5.808;2024-03-06T03:57:38;11.52;;;9.70;;
25263;SDS011;13211;51.796;5.808;2024-03-06T04:00:06;11.95;;;9.95;;
25263;SDS011;13211;51.796;5.808;2024-03-06T04:02:38;11.52;;;10.10;;
25263;SDS011;13211;51.796;5.808;2024-03-06T04:05:06;12.73;;;11.35;;
25263;SDS011;13211;51.796;5.808;2024-03-06T04:07:35;14.07;;;12.30;;
25263;SDS011;13211;51.796;5.808;2024-03-06T04:10:03;13.63;;;11.75;;
25263;SDS011;13211;51.796;5.808;2024-03-06T04:12:31;13.93;;;12.07;;
25263;SDS011;13211;51.796;5.808;2024-03-06T04:14:59;16.70;;;13.88;;
25263;SDS011;13211;51.796;5.808;2024-03-06T04:17:26;18.53;;;15.00;;
25263;SDS011;13211;51.796;5.808;2024-03-06T04:19:54;20.20;;;16.17;;
25263;SDS011;13211;51.796;5.808;2024-03-06T04:22:22;23.00;;;17.52;;
25263;SDS011;13211;51.796;5.808;2024-03-06T04:24:50;22.83;;;16.88;;
25263;SDS011;13211;51.796;5.808;2024-03-06T04:27:17;21.58;;;16.88;;
25263;SDS011;13211;51.796;5.808;2024-03-06T04:29:45;21.20;;;16.95;;
25263;SDS011;13211;51.796;5.808;2024-03-06T04:32:13;19.38;;;15.48;;
25263;SDS011;13211;51.796;5.808;2024-03-06T04:34:42;17.13;;;14.13;;
25263;SDS011;13211;51.796;5.808;2024-03-06T04:37:09;17.70;;;14.40;;
25263;SDS011;13211;51.796;5.808;2024-03-06T04:39:38;18.30;;;14.43;;
25263;SDS011;13211;51.796;5.808;2024-03-06T04:42:06;20.73;;;16.20;;
25263;SDS011;13211;51.796;5.808;2024-03-06T04:44:34;20.77;;;16.15;;
25263;SDS011;13211;51.796;5.808;2024-03-06T04:47:02;20.08;;;15.23;;
25263;SDS011;13211;51.796;5.808;2024-03-06T04:49:33;19.65;;;15.70;;
25263;SDS011;13211;51.796;5.808;2024-03-06T04:52:04;21.42;;;16.40;;
25263;SDS011;13211;51.796;5.808;2024-03-06T04:54:33;21.93;;;16.10;;
25263;SDS011;13211;51.796;5.808;2024-03-06T04:57:05;18.83;;;14.87;;
25263;SDS011;13211;51.796;5.808;2024-03-06T04:59:33;16.35;;;12.57;;
25263;SDS011;13211;51.796;5.808;2024-03-06T05:02:00;14.63;;;11.95;;
25263;SDS011;13211;51.796;5.808;2024-03-06T05:04:30;15.25;;;12.68;;
25263;SDS011;13211;51.796;5.808;2024-03-06T05:07:15;17.60;;;13.23;;
25263;SDS011;13211;51.796;5.808;2024-03-06T05:10:00;19.17;;;14.05;;
25263;SDS011;13211;51.796;5.808;2024-03-06T05:12:50;20.02;;;14.13;;
25263;SDS011;13211;51.796;5.808;2024-03-06T05:15:35;21.13;;;15.25;;
25263;SDS011;13211;51.796;5.808;2024-03-06T05:18:20;29.80;;;18.33;;
25263;SDS011;13211;51.796;5.808;2024-03-06T05:21:05;24.65;;;17.25;;
25263;SDS011;13211;51.796;5.808;2024-03-06T05:23:51;24.45;;;17.05;;
25263;SDS011;13211;51.796;5.808;2024-03-06T05:26:36;25.83;;;17.73;;
25263;SDS011;13211;51.796;5.808;2024-03-06T05:29:21;23.30;;;17.48;;
25263;SDS011;13211;51.796;5.808;2024-03-06T05:32:06;25.15;;;17.60;;
25263;SDS011;13211;51.796;5.808;2024-03-06T05:34:51;29.58;;;20.55;;
25263;SDS011;13211;51.796;5.808;2024-03-06T05:37:37;36.38;;;22.13;;
25263;SDS011;13211;51.796;5.808;2024-03-06T05:40:21;55.10;;;29.10;;
25263;SDS011;13211;51.796;5.808;2024-03-06T05:43:07;64.93;;;34.58;;
25263;SDS011;13211;51.796;5.808;2024-03-06T05:45:53;59.70;;;34.72;;
25263;SDS011;13211;51.796;5.808;2024-03-06T05:48:38;91.38;;;36.38;;
25263;SDS011;13211;51.796;5.808;2024-03-06T05:51:23;61.20;;;36.97;;
25263;SDS011;13211;51.796;5.808;2024-03-06T05:54:08;57.25;;;35.75;;
25263;SDS011;13211;51.796;5.808;2024-03-06T05:56:53;58.03;;;36.58;;
25263;SDS011;13211;51.796;5.808;2024-03-06T05:59:38;55.72;;;35.90;;
25263;SDS011;13211;51.796;5.808;2024-03-06T06:02:06;57.28;;;36.30;;
25263;SDS011;13211;51.796;5.808;2024-03-06T06:04:34;58.45;;;36.65;;
25263;SDS011;13211;51.796;5.808;2024-03-06T06:07:13;59.78;;;36.25;;
25263;SDS011;13211;51.796;5.808;2024-03-06T06:09:42;56.87;;;35.57;;
25263;SDS011;13211;51.796;5.808;2024-03-06T06:12:11;61.55;;;37.00;;
25263;SDS011;13211;51.796;5.808;2024-03-06T06:14:39;54.72;;;35.35;;
25263;SDS011;13211;51.796;5.808;2024-03-06T06:17:06;59.67;;;35.67;;
25263;SDS011;13211;51.796;5.808;2024-03-06T06:19:34;58.08;;;36.35;;
25263;SDS011;13211;51.796;5.808;2024-03-06T06:22:02;60.08;;;36.05;;
25263;SDS011;13211;51.796;5.808;2024-03-06T06:24:29;61.03;;;37.65;;
25263;SDS011;13211;51.796;5.808;2024-03-06T06:26:57;64.15;;;36.95;;
25263;SDS011;13211;51.796;5.808;2024-03-06T06:29:25;63.10;;;37.05;;
25263;SDS011;13211;51.796;5.808;2024-03-06T06:31:52;67.00;;;38.53;;
25263;SDS011;13211;51.796;5.808;2024-03-06T06:34:20;76.97;;;40.90;;
25263;SDS011;13211;51.796;5.808;2024-03-06T06:36:48;76.43;;;43.13;;
25263;SDS011;13211;51.796;5.808;2024-03-06T06:39:15;79.60;;;44.70;;
25263;SDS011;13211;51.796;5.808;2024-03-06T06:41:43;86.47;;;46.13;;
25263;SDS011;13211;51.796;5.808;2024-03-06T06:44:11;86.70;;;45.80;;
25263;SDS011;13211;51.796;5.808;2024-03-06T06:46:43;102.27;;;45.83;;
25263;SDS011;13211;51.796;5.808;2024-03-06T06:49:10;79.10;;;43.22;;
25263;SDS011;13211;51.796;5.808;2024-03-06T06:51:38;72.47;;;42.88;;
25263;SDS011;13211;51.796;5.808;2024-03-06T06:54:06;74.85;;;42.40;;
25263;SDS011;13211;51.796;5.808;2024-03-06T06:56:33;72.13;;;41.75;;
25263;SDS011;13211;51.796;5.808;2024-03-06T06:59:02;66.57;;;40.35;;
25263;SDS011;13211;51.796;5.808;2024-03-06T07:01:29;56.63;;;37.50;;
25263;SDS011;13211;51.796;5.808;2024-03-06T07:03:57;51.15;;;36.97;;
25263;SDS011;13211;51.796;5.808;2024-03-06T07:06:25;54.35;;;37.92;;
25263;SDS011;13211;51.796;5.808;2024-03-06T07:08:53;72.73;;;38.27;;
25263;SDS011;13211;51.796;5.808;2024-03-06T07:11:21;56.08;;;37.75;;
25263;SDS011;13211;51.796;5.808;2024-03-06T07:13:52;57.40;;;37.88;;
25263;SDS011;13211;51.796;5.808;2024-03-06T07:16:19;62.80;;;39.15;;
25263;SDS011;13211;51.796;5.808;2024-03-06T07:18:47;70.50;;;41.35;;
25263;SDS011;13211;51.796;5.808;2024-03-06T07:21:15;75.67;;;40.73;;
25263;SDS011;13211;51.796;5.808;2024-03-06T07:23:44;68.90;;;40.75;;
25263;SDS011;13211;51.796;5.808;2024-03-06T07:26:12;80.25;;;41.78;;
25263;SDS011;13211;51.796;5.808;2024-03-06T07:28:39;89.20;;;44.47;;
25263;SDS011;13211;51.796;5.808;2024-03-06T07:31:07;83.18;;;43.83;;
25263;SDS011;13211;51.796;5.808;2024-03-06T07:33:35;75.25;;;42.60;;
25263;SDS011;13211;51.796;5.808;2024-03-06T07:36:04;64.22;;;42.20;;
25263;SDS011;13211;51.796;5.808;2024-03-06T07:38:32;82.35;;;41.70;;
25263;SDS011;13211;51.796;5.808;2024-03-06T07:41:03;63.75;;;41.65;;
25263;SDS011;13211;51.796;5.808;2024-03-06T07:43:37;58.65;;;40.58;;
25263;SDS011;13211;51.796;5.808;2024-03-06T07:46:05;57.42;;;38.35;;
25263;SDS011;13211;51.796;5.808;2024-03-06T07:48:43;52.55;;;38.65;;
25263;SDS011;13211;51.796;5.808;2024-03-06T07:51:11;63.92;;;40.33;;
25263;SDS011;13211;51.796;5.808;2024-03-06T07:56:13;55.83;;;39.00;;
25263;SDS011;13211;51.796;5.808;2024-03-06T07:58:40;62.37;;;39.13;;
25263;SDS011;13211;51.796;5.808;2024-03-06T08:01:09;53.20;;;37.22;;
25263;SDS011;13211;51.796;5.808;2024-03-06T08:03:38;72.88;;;38.58;;
25263;SDS011;13211;51.796;5.808;2024-03-06T08:06:06;52.80;;;38.03;;
25263;SDS011;13211;51.796;5.808;2024-03-06T08:08:39;64.22;;;38.42;;
25263;SDS011;13211;51.796;5.808;2024-03-06T08:11:08;68.55;;;38.30;;
25263;SDS011;13211;51.796;5.808;2024-03-06T08:13:38;69.10;;;38.57;;
25263;SDS011;13211;51.796;5.808;2024-03-06T08:16:06;91.45;;;37.63;;
25263;SDS011;13211;51.796;5.808;2024-03-06T08:18:34;56.20;;;38.85;;
25263;SDS011;13211;51.796;5.808;2024-03-06T08:21:02;75.50;;;38.53;;
25263;SDS011;13211;51.796;5.808;2024-03-06T08:23:33;57.53;;;38.92;;
25263;SDS011;13211;51.796;5.808;2024-03-06T08:26:03;86.38;;;40.58;;
25263;SDS011;13211;51.796;5.808;2024-03-06T08:28:31;137.83;;;38.30;;
25263;SDS011;13211;51.796;5.808;2024-03-06T08:30:59;53.73;;;34.43;;
25263;SDS011;13211;51.796;5.808;2024-03-06T08:33:27;93.43;;;35.78;;
25263;SDS011;13211;51.796;5.808;2024-03-06T08:36:01;50.13;;;34.73;;
25263;SDS011;13211;51.796;5.808;2024-03-06T08:38:29;63.28;;;36.53;;
25263;SDS011;13211;51.796;5.808;2024-03-06T08:41:04;50.70;;;35.85;;
25263;SDS011;13211;51.796;5.808;2024-03-06T08:43:32;108.03;;;41.05;;
25263;SDS011;13211;51.796;5.808;2024-03-06T08:45:59;145.35;;;41.67;;
25263;SDS011;13211;51.796;5.808;2024-03-06T08:48:27;71.72;;;40.33;;
25263;SDS011;13211;51.796;5.808;2024-03-06T08:50:57;69.38;;;38.08;;
25263;SDS011;13211;51.796;5.808;2024-03-06T08:53:25;58.13;;;37.83;;
25263;SDS011;13211;51.796;5.808;2024-03-06T08:55:53;54.38;;;36.38;;
25263;SDS011;13211;51.796;5.808;2024-03-06T08:58:20;54.95;;;36.53;;
25263;SDS011;13211;51.796;5.808;2024-03-06T09:00:48;55.53;;;33.25;;
25263;SDS011;13211;51.796;5.808;2024-03-06T09:03:16;48.33;;;34.20;;
25263;SDS011;13211;51.796;5.808;2024-03-06T09:05:44;46.97;;;33.67;;
25263;SDS011;13211;51.796;5.808;2024-03-06T09:08:12;49.35;;;33.53;;
25263;SDS011;13211;51.796;5.808;2024-03-06T09:10:45;47.80;;;33.75;;
25263;SDS011;13211;51.796;5.808;2024-03-06T09:13:13;48.67;;;33.28;;
25263;SDS011;13211;51.796;5.808;2024-03-06T09:15:41;45.20;;;32.30;;
25263;SDS011;13211;51.796;5.808;2024-03-06T09:18:09;50.15;;;32.22;;
25263;SDS011;13211;51.796;5.808;2024-03-06T09:20:37;42.00;;;30.40;;
25263;SDS011;13211;51.796;5.808;2024-03-06T09:23:04;47.75;;;32.13;;
25263;SDS011;13211;51.796;5.808;2024-03-06T09:25:32;48.53;;;31.50;;
25263;SDS011;13211;51.796;5.808;2024-03-06T09:28:00;42.75;;;30.60;;
25263;SDS011;13211;51.796;5.808;2024-03-06T09:30:31;43.88;;;31.23;;
25263;SDS011;13211;51.796;5.808;2024-03-06T09:32:59;42.20;;;30.35;;
25263;SDS011;13211;51.796;5.808;2024-03-06T09:35:26;56.20;;;32.22;;
25263;SDS011;13211;51.796;5.808;2024-03-06T09:37:54;43.67;;;30.30;;
25263;SDS011;13211;51.796;5.808;2024-03-06T09:40:24;42.10;;;30.00;;
25263;SDS011;13211;51.796;5.808;2024-03-06T09:42:53;44.33;;;31.52;;
25263;SDS011;13211;51.796;5.808;2024-03-06T09:45:20;48.47;;;33.22;;
25263;SDS011;13211;51.796;5.808;2024-03-06T09:47:53;50.95;;;35.50;;
25263;SDS011;13211;51.796;5.808;2024-03-06T09:50:22;54.25;;;35.83;;
25263;SDS011;13211;51.796;5.808;2024-03-06T09:52:57;52.97;;;35.03;;
25263;SDS011;13211;51.796;5.808;2024-03-06T09:55:25;55.70;;;34.73;;
25263;SDS011;13211;51.796;5.808;2024-03-06T09:57:56;50.83;;;35.78;;
25263;SDS011;13211;51.796;5.808;2024-03-06T10:00:23;50.08;;;34.42;;
25263;SDS011;13211;51.796;5.808;2024-03-06T10:02:58;45.97;;;32.70;;
25263;SDS011;13211;51.796;5.808;2024-03-06T10:05:27;46.33;;;33.85;;
25263;SDS011;13211;51.796;5.808;2024-03-06T10:07:57;67.18;;;33.55;;
25263;SDS011;13211;51.796;5.808;2024-03-06T10:10:26;50.42;;;34.80;;
25263;SDS011;13211;51.796;5.808;2024-03-06T10:12:53;49.17;;;34.20;;
25263;SDS011;13211;51.796;5.808;2024-03-06T10:15:23;45.67;;;32.77;;
25263;SDS011;13211;51.796;5.808;2024-03-06T10:17:53;44.70;;;32.05;;
25263;SDS011;13211;51.796;5.808;2024-03-06T10:20:38;49.03;;;34.40;;
25263;SDS011;13211;51.796;5.808;2024-03-06T10:23:06;48.10;;;34.72;;
25263;SDS011;13211;51.796;5.808;2024-03-06T10:25:35;62.65;;;41.95;;
25263;SDS011;13211;51.796;5.808;2024-03-06T10:28:09;56.10;;;40.00;;
25263;SDS011;13211;51.796;5.808;2024-03-06T10:30:37;57.05;;;38.50;;
25263;SDS011;13211;51.796;5.808;2024-03-06T10:33:09;52.85;;;37.10;;
25263;SDS011;13211;51.796;5.808;2024-03-06T10:35:39;56.00;;;38.38;;
25263;SDS011;13211;51.796;5.808;2024-03-06T10:38:07;54.67;;;37.70;;
25263;SDS011;13211;51.796;5.808;2024-03-06T10:40:35;55.05;;;37.80;;
25263;SDS011;13211;51.796;5.808;2024-03-06T10:43:04;54.67;;;37.63;;
25263;SDS011;13211;51.796;5.808;2024-03-06T10:45:39;56.35;;;38.55;;
25263;SDS011;13211;51.796;5.808;2024-03-06T10:48:10;52.15;;;36.03;;
25263;SDS011;13211;51.796;5.808;2024-03-06T10:50:41;50.60;;;35.53;;
25263;SDS011;13211;51.796;5.808;2024-03-06T10:53:11;47.22;;;33.13;;
25263;SDS011;13211;51.796;5.808;2024-03-06T10:55:49;47.72;;;33.72;;
25263;SDS011;13211;51.796;5.808;2024-03-06T10:58:18;52.25;;;35.47;;
25263;SDS011;13211;51.796;5.808;2024-03-06T11:00:51;45.28;;;32.60;;
25263;SDS011;13211;51.796;5.808;2024-03-06T11:03:18;43.55;;;31.58;;
25263;SDS011;13211;51.796;5.808;2024-03-06T11:05:46;44.28;;;33.38;;
25263;SDS011;13211;51.796;5.808;2024-03-06T11:08:18;40.85;;;29.50;;
25263;SDS011;13211;51.796;5.808;2024-03-06T11:10:46;40.30;;;29.58;;
25263;SDS011;13211;51.796;5.808;2024-03-06T11:15:45;33.88;;;25.73;;
25263;SDS011;13211;51.796;5.808;2024-03-06T11:23:36;31.83;;;23.83;;
25263;SDS011;13211;51.796;5.808;2024-03-06T11:26:25;32.20;;;23.38;;
25263;SDS011;13211;51.796;5.808;2024-03-06T11:28:57;29.63;;;21.77;;
25263;SDS011;13211;51.796;5.808;2024-03-06T11:31:25;27.75;;;20.55;;
25263;SDS011;13211;51.796;5.808;2024-03-06T11:33:53;28.00;;;20.85;;
25263;SDS011;13211;51.796;5.808;2024-03-06T11:36:25;26.90;;;19.10;;
25263;SDS011;13211;51.796;5.808;2024-03-06T11:38:59;24.70;;;17.80;;
25263;SDS011;13211;51.796;5.808;2024-03-06T11:41:31;25.45;;;19.20;;
25263;SDS011;13211;51.796;5.808;2024-03-06T11:43:59;25.48;;;18.17;;
25263;SDS011;13211;51.796;5.808;2024-03-06T11:49:14;23.33;;;17.20;;
25263;SDS011;13211;51.796;5.808;2024-03-06T11:51:44;19.63;;;15.33;;
25263;SDS011;13211;51.796;5.808;2024-03-06T11:54:12;20.17;;;15.35;;
25263;SDS011;13211;51.796;5.808;2024-03-06T11:56:41;20.33;;;15.77;;
25263;SDS011;13211;51.796;5.808;2024-03-06T11:59:09;19.03;;;13.90;;
25263;SDS011;13211;51.796;5.808;2024-03-06T12:01:37;16.58;;;12.35;;
25263;SDS011;13211;51.796;5.808;2024-03-06T12:04:05;19.17;;;12.60;;
25263;SDS011;13211;51.796;5.808;2024-03-06T12:06:33;16.55;;;12.77;;
25263;SDS011;13211;51.796;5.808;2024-03-06T12:09:01;15.88;;;10.73;;
25263;SDS011;13211;51.796;5.808;2024-03-06T12:11:30;15.63;;;11.20;;
25263;SDS011;13211;51.796;5.808;2024-03-06T12:13:58;17.15;;;12.48;;
25263;SDS011;13211;51.796;5.808;2024-03-06T12:16:32;16.92;;;12.80;;
25263;SDS011;13211;51.796;5.808;2024-03-06T12:19:02;17.75;;;12.65;;
25263;SDS011;13211;51.796;5.808;2024-03-06T12:21:33;14.88;;;10.80;;
25263;SDS011;13211;51.796;5.808;2024-03-06T12:24:02;13.60;;;9.82;;
25263;SDS011;13211;51.796;5.808;2024-03-06T12:26:30;11.38;;;8.07;;
25263;SDS011;13211;51.796;5.808;2024-03-06T12:29:07;12.88;;;9.77;;
25263;SDS011;13211;51.796;5.808;2024-03-06T12:31:37;11.60;;;7.57;;
25263;SDS011;13211;51.796;5.808;2024-03-06T12:34:06;10.43;;;7.18;;
25263;SDS011;13211;51.796;5.808;2024-03-06T12:36:33;9.95;;;7.13;;
25263;SDS011;13211;51.796;5.808;2024-03-06T12:39:02;10.65;;;6.93;;
25263;SDS011;13211;51.796;5.808;2024-03-06T12:41:32;9.57;;;6.38;;
25263;SDS011;13211;51.796;5.808;2024-03-06T12:44:02;16.27;;;10.07;;
25263;SDS011;13211;51.796;5.808;2024-03-06T12:46:30;20.25;;;14.82;;
25263;SDS011;13211;51.796;5.808;2024-03-06T12:48:58;20.65;;;15.73;;
25263;SDS011;13211;51.796;5.808;2024-03-06T12:51:26;21.80;;;16.50;;
25263;SDS011;13211;51.796;5.808;2024-03-06T12:53:54;20.87;;;15.07;;
25263;SDS011;13211;51.796;5.808;2024-03-06T12:56:22;19.27;;;14.23;;
25263;SDS011;13211;51.796;5.808;2024-03-06T13:01:24;22.65;;;16.15;;
25263;SDS011;13211;51.796;5.808;2024-03-06T13:03:52;21.60;;;15.88;;
25263;SDS011;13211;51.796;5.808;2024-03-06T13:06:28;25.25;;;17.42;;
25263;SDS011;13211;51.796;5.808;2024-03-06T13:08:57;26.23;;;18.42;;
25263;SDS011;13211;51.796;5.808;2024-03-06T13:11:25;27.55;;;18.80;;
25263;SDS011;13211;51.796;5.808;2024-03-06T13:13:58;26.20;;;17.90;;
25263;SDS011;13211;51.796;5.808;2024-03-06T13:16:28;22.95;;;16.92;;
25263;SDS011;13211;51.796;5.808;2024-03-06T13:18:56;21.75;;;16.10;;
25263;SDS011;13211;51.796;5.808;2024-03-06T13:21:26;23.77;;;17.77;;
25263;SDS011;13211;51.796;5.808;2024-03-06T13:23:53;27.55;;;20.00;;
25263;SDS011;13211;51.796;5.808;2024-03-06T13:26:23;29.15;;;21.10;;
25263;SDS011;13211;51.796;5.808;2024-03-06T13:28:51;26.73;;;20.20;;
25263;SDS011;13211;51.796;5.808;2024-03-06T13:31:19;28.48;;;20.65;;
25263;SDS011;13211;51.796;5.808;2024-03-06T13:33:47;28.15;;;20.45;;
25263;SDS011;13211;51.796;5.808;2024-03-06T13:36:15;25.55;;;20.23;;
25263;SDS011;13211;51.796;5.808;2024-03-06T13:38:43;31.73;;;22.08;;
25263;SDS011;13211;51.796;5.808;2024-03-06T13:41:11;28.47;;;20.80;;
25263;SDS011;13211;51.796;5.808;2024-03-06T13:43:39;29.33;;;21.33;;
25263;SDS011;13211;51.796;5.808;2024-03-06T13:46:07;32.30;;;22.48;;
25263;SDS011;13211;51.796;5.808;2024-03-06T13:48:35;27.15;;;20.73;;
25263;SDS011;13211;51.796;5.808;2024-03-06T13:51:03;30.67;;;22.13;;
25263;SDS011;13211;51.796;5.808;2024-03-06T13:53:31;30.63;;;21.35;;
25263;SDS011;13211;51.796;5.808;2024-03-06T13:55:59;29.05;;;21.35;;
25263;SDS011;13211;51.796;5.808;2024-03-06T13:58:27;30.23;;;22.15;;
25263;SDS011;13211;51.796;5.808;2024-03-06T14:00:55;29.90;;;22.20;;
25263;SDS011;13211;51.796;5.808;2024-03-06T14:06:01;30.63;;;22.70;;
25263;SDS011;13211;51.796;5.808;2024-03-06T14:08:28;31.08;;;21.80;;
25263;SDS011;13211;51.796;5.808;2024-03-06T14:10:58;35.40;;;24.60;;
25263;SDS011;13211;51.796;5.808;2024-03-06T14:13:26;32.50;;;23.88;;
25263;SDS011;13211;51.796;5.808;2024-03-06T14:15:54;32.55;;;23.55;;
25263;SDS011;13211;51.796;5.808;2024-03-06T14:18:27;32.38;;;23.35;;
25263;SDS011;13211;51.796;5.808;2024-03-06T14:20:56;30.52;;;22.88;;
25263;SDS011;13211;51.796;5.808;2024-03-06T14:23:29;36.67;;;24.97;;
25263;SDS011;13211;51.796;5.808;2024-03-06T14:26:00;33.80;;;24.42;;
25263;SDS011;13211;51.796;5.808;2024-03-06T14:28:30;34.05;;;24.17;;
25263;SDS011;13211;51.796;5.808;2024-03-06T14:30:58;31.77;;;22.80;;
25263;SDS011;13211;51.796;5.808;2024-03-06T14:33:30;28.85;;;21.35;;
25263;SDS011;13211;51.796;5.808;2024-03-06T14:35:58;30.13;;;21.52;;
25263;SDS011;13211;51.796;5.808;2024-03-06T14:38:28;28.77;;;21.13;;
25263;SDS011;13211;51.796;5.808;2024-03-06T14:40:58;23.58;;;17.20;;
25263;SDS011;13211;51.796;5.808;2024-03-06T14:43:27;19.77;;;14.70;;
25263;SDS011;13211;51.796;5.808;2024-03-06T14:45:56;22.67;;;15.52;;
25263;SDS011;13211;51.796;5.808;2024-03-06T14:48:25;18.27;;;13.38;;
25263;SDS011;13211;51.796;5.808;2024-03-06T14:50:54;19.17;;;14.43;;
25263;SDS011;13211;51.796;5.808;2024-03-06T14:53:25;23.48;;;16.50;;
25263;SDS011;13211;51.796;5.808;2024-03-06T14:55:54;23.20;;;16.13;;